Pagina principale
METAR-TAF:

METAR-TAF

Aeroporti :

Aeroporto Internazionale di Khartum

Khartum, Sudan

latitudine: 15-36N, longitudine: 032-33E, altezza: 382 m

Osservazione

Il bollettino è stato emesso 24 minuti fa, alle 09:30 UTC
Vento 12 kt da sud/sud-est
Temperature 26°C
Umidità 74%
Pressione 1013 hPa
Visibilità 10 km o più
Poco nuvoloso ad un'altezza di 4000 ft
Nuvoloso ad un'altezza di 14000 ft

METAR: HSSS 190930Z 16012KT 9999 FEW040 BKN140 26/21 Q1013 NOSIG

Ora: 12:54 (09:54 UTC)

Previsione

Il bollettino è stato emesso 4 ore e 54 minuti fa, alle 05:00 UTC
Previsione valida dal 19 alle 06 UTC al 20 alle 12 UTC
Vento 10 kt da sud con raffiche fino a 20 kt
Visibilità 10 km o più
Poco nuvoloso ad un'altezza di 4000 ft
Nuvoloso ad un'altezza di 14000 ft
Temporaneamente
dal 19 alle 06 UTC al 19 alle 10 UTC
Visibilità: 6000 m
Nuvoloso ad un'altezza di 14000 ft
rovesci di pioggia

TAF: HSSS 190500Z 1906/2012 18010G20KT 9999 FEW040 BKN140 TEMPO 1906/1910 6000 -SHRA BKN140

Osservazioni e previsioni meteorologiche di più di 4000 aeroporti (messaggi METAR e TAF).

Le stazioni disponibili sono rappresentate dai dischi gialli e rossi sulla carta.

Puntare il mouse per vedere il nome della stazione.

Clicca sopra per visualizzare le osservazioni e previsioni meteorologiche.

Per cambiare la mappa : fare clic sui pulsanti verdi con una croce nera per ingrandire, il pulsante verde con un trattino per diminuire, o sulla freccia verde per le mappe adiacenti.


METAR-TAF: